Oak Park, IL (60303)

6:28 PM CDT on July 03, 2015 (GMT -0500)
oak park | | Change Station
CLOSE
Current Station
Personal Weather Station
Location: Oak Park, IL
Elevation: 640 ft
Nearby Weather Stations

Elev 640 ft 41.90 °N, 87.79 °W | Updated 19 seconds ago

Partly Cloudy
Partly Cloudy
74.0 °F
Feels Like 77 °F
N
0.0
Wind Variable Wind from ENE
Gusts 1.0 mph

Today
High -- | Low -- °F
--% Chance of Precip.
Yesterday
High -- | Low -- °F
Precip. -- in
5:20 AM 8:29 PM
Waning Gibbous, 95% visible
Pressure 29.90 in
Visibility 10.0 miles
Clouds Few 5000 ft
Scattered Clouds 30000 ft
Heat Index 77 °F
Dew Point 52 °F
Humidity 46%
Rainfall 0.00 in
Snow Depth Not available.
UV 2 out of 12
Pollen 3.70 out of 12
Air Quality Not available.
Flu Activity Not available.
METAR KMDW 032253Z 10008KT 10SM FEW050 SCT300 24/12 A2992 RMK AO2 SLP124 T02390117

More Conditions Fewer Conditions

Pressure 29.90 in
Visibility 10.0 miles
Clouds Few 5000 ft
Scattered Clouds 30000 ft
Heat Index 77 °F
Dew Point 52 °F
Humidity 46%
Rainfall 0.00 in
Snow Depth Not available.
UV 2 out of 12
Pollen 3.70 out of 12
Air Quality Not available.
Flu Activity Not available.
METAR KMDW 032253Z 10008KT 10SM FEW050 SCT300 24/12 A2992 RMK AO2 SLP124 T02390117

More Conditions Fewer Conditions

10-Day Weather Forecast

×

Almanac

Astronomy

Jul. 03, 2015 Rise Set
Actual Time
Civil Twilight
Nautical Twilight
Astronomical Twilight
Moon
Length of Visible Light
Length of Day
Tomorrow will be .
, % of the Moon is Illuminated

Today's Extremes

State Highs State Lows

Community

WunderPhotos

Upload Photos

1,834,821 photos uploaded!

WunderBlogs® & News

Nearby

Air Quality

  Air Quality AQ Index Pollutant
Not available.

Snow Depth

Station Depth Elevation

Earthquake Activity

City Distance Mag. Time & Date
Minimum magnitude displayed is 2.5.

Coastal Water Temperatures

Place Temperature

Stations

Nearby Weather Stations

Station Location Temp. Windchill Dew Point Humidity Wind Precip. Elev Updated Type